sensor_id;sensor_type;location;lat;lon;timestamp;P1;durP1;ratioP1;P2;durP2;ratioP2
34242;SDS011;20504;43.214;27.920;2023-08-17T00:01:25;10.70;;;4.50;;
34242;SDS011;20504;43.214;27.920;2023-08-17T00:03:50;9.50;;;4.73;;
34242;SDS011;20504;43.214;27.920;2023-08-17T00:06:16;6.33;;;4.17;;
34242;SDS011;20504;43.214;27.920;2023-08-17T00:08:41;8.70;;;4.60;;
34242;SDS011;20504;43.214;27.920;2023-08-17T00:11:07;14.30;;;5.07;;
34242;SDS011;20504;43.214;27.920;2023-08-17T00:13:33;6.25;;;4.55;;
34242;SDS011;20504;43.214;27.920;2023-08-17T00:15:59;8.02;;;4.55;;
34242;SDS011;20504;43.214;27.920;2023-08-17T00:18:25;8.83;;;4.80;;
34242;SDS011;20504;43.214;27.920;2023-08-17T00:20:52;13.63;;;4.70;;
34242;SDS011;20504;43.214;27.920;2023-08-17T00:23:17;14.40;;;4.93;;
34242;SDS011;20504;43.214;27.920;2023-08-17T00:25:43;9.80;;;5.20;;
34242;SDS011;20504;43.214;27.920;2023-08-17T00:28:08;6.38;;;4.13;;
34242;SDS011;20504;43.214;27.920;2023-08-17T00:30:34;9.07;;;4.57;;
34242;SDS011;20504;43.214;27.920;2023-08-17T00:33:01;8.10;;;4.30;;
34242;SDS011;20504;43.214;27.920;2023-08-17T00:37:53;5.63;;;3.90;;
34242;SDS011;20504;43.214;27.920;2023-08-17T00:40:19;6.07;;;4.40;;
34242;SDS011;20504;43.214;27.920;2023-08-17T00:42:44;5.87;;;3.93;;
34242;SDS011;20504;43.214;27.920;2023-08-17T00:45:09;8.17;;;4.33;;
34242;SDS011;20504;43.214;27.920;2023-08-17T00:47:35;12.93;;;4.53;;
34242;SDS011;20504;43.214;27.920;2023-08-17T00:50:01;9.30;;;4.40;;
34242;SDS011;20504;43.214;27.920;2023-08-17T00:52:27;8.27;;;4.47;;
34242;SDS011;20504;43.214;27.920;2023-08-17T00:54:53;6.10;;;4.72;;
34242;SDS011;20504;43.214;27.920;2023-08-17T00:57:20;9.65;;;4.72;;
34242;SDS011;20504;43.214;27.920;2023-08-17T00:59:46;6.93;;;4.47;;
34242;SDS011;20504;43.214;27.920;2023-08-17T01:02:12;9.40;;;4.50;;
34242;SDS011;20504;43.214;27.920;2023-08-17T01:04:37;5.33;;;4.03;;
34242;SDS011;20504;43.214;27.920;2023-08-17T01:07:03;5.47;;;4.10;;
34242;SDS011;20504;43.214;27.920;2023-08-17T01:09:28;8.13;;;4.60;;
34242;SDS011;20504;43.214;27.920;2023-08-17T01:14:31;8.68;;;4.03;;
34242;SDS011;20504;43.214;27.920;2023-08-17T01:17:06;7.93;;;4.15;;
34242;SDS011;20504;43.214;27.920;2023-08-17T01:19:36;6.50;;;4.30;;
34242;SDS011;20504;43.214;27.920;2023-08-17T01:22:03;9.48;;;4.45;;
34242;SDS011;20504;43.214;27.920;2023-08-17T01:24:30;9.68;;;4.35;;
34242;SDS011;20504;43.214;27.920;2023-08-17T01:26:56;7.07;;;4.40;;
34242;SDS011;20504;43.214;27.920;2023-08-17T01:29:21;10.37;;;4.93;;
34242;SDS011;20504;43.214;27.920;2023-08-17T01:32:04;5.70;;;4.53;;
34242;SDS011;20504;43.214;27.920;2023-08-17T01:34:32;9.07;;;5.28;;
34242;SDS011;20504;43.214;27.920;2023-08-17T01:37:03;9.65;;;4.90;;
34242;SDS011;20504;43.214;27.920;2023-08-17T01:39:41;7.28;;;4.90;;
34242;SDS011;20504;43.214;27.920;2023-08-17T01:42:09;6.03;;;4.78;;
34242;SDS011;20504;43.214;27.920;2023-08-17T01:44:37;9.15;;;4.97;;
34242;SDS011;20504;43.214;27.920;2023-08-17T01:47:03;8.73;;;4.93;;
34242;SDS011;20504;43.214;27.920;2023-08-17T01:49:29;8.27;;;4.97;;
34242;SDS011;20504;43.214;27.920;2023-08-17T01:51:54;11.27;;;4.83;;
34242;SDS011;20504;43.214;27.920;2023-08-17T01:54:20;6.67;;;4.23;;
34242;SDS011;20504;43.214;27.920;2023-08-17T01:56:46;8.60;;;5.20;;
34242;SDS011;20504;43.214;27.920;2023-08-17T01:59:11;7.40;;;4.40;;
34242;SDS011;20504;43.214;27.920;2023-08-17T02:01:38;16.42;;;4.88;;
34242;SDS011;20504;43.214;27.920;2023-08-17T02:04:03;7.00;;;4.40;;
34242;SDS011;20504;43.214;27.920;2023-08-17T02:06:28;8.70;;;5.40;;
34242;SDS011;20504;43.214;27.920;2023-08-17T02:08:54;9.27;;;5.73;;
34242;SDS011;20504;43.214;27.920;2023-08-17T02:11:20;12.57;;;4.83;;
34242;SDS011;20504;43.214;27.920;2023-08-17T02:13:45;7.77;;;5.10;;
34242;SDS011;20504;43.214;27.920;2023-08-17T02:16:11;7.80;;;5.53;;
34242;SDS011;20504;43.214;27.920;2023-08-17T02:18:36;9.97;;;6.03;;
34242;SDS011;20504;43.214;27.920;2023-08-17T02:21:02;8.85;;;4.68;;
34242;SDS011;20504;43.214;27.920;2023-08-17T02:23:28;8.03;;;5.13;;
34242;SDS011;20504;43.214;27.920;2023-08-17T02:25:53;12.20;;;5.17;;
34242;SDS011;20504;43.214;27.920;2023-08-17T02:28:19;11.03;;;5.30;;
34242;SDS011;20504;43.214;27.920;2023-08-17T02:30:45;7.17;;;5.07;;
34242;SDS011;20504;43.214;27.920;2023-08-17T02:33:11;8.82;;;4.72;;
34242;SDS011;20504;43.214;27.920;2023-08-17T02:35:37;6.77;;;4.83;;
34242;SDS011;20504;43.214;27.920;2023-08-17T02:38:03;7.53;;;4.72;;
34242;SDS011;20504;43.214;27.920;2023-08-17T02:40:29;6.60;;;4.90;;
34242;SDS011;20504;43.214;27.920;2023-08-17T02:42:54;8.80;;;5.40;;
34242;SDS011;20504;43.214;27.920;2023-08-17T02:45:20;12.87;;;6.43;;
34242;SDS011;20504;43.214;27.920;2023-08-17T02:47:45;9.70;;;5.43;;
34242;SDS011;20504;43.214;27.920;2023-08-17T02:50:11;11.23;;;8.97;;
34242;SDS011;20504;43.214;27.920;2023-08-17T02:52:36;9.77;;;5.97;;
34242;SDS011;20504;43.214;27.920;2023-08-17T02:55:02;12.90;;;9.03;;
34242;SDS011;20504;43.214;27.920;2023-08-17T02:57:27;12.33;;;8.93;;
34242;SDS011;20504;43.214;27.920;2023-08-17T02:59:53;33.70;;;23.03;;
34242;SDS011;20504;43.214;27.920;2023-08-17T03:02:18;11.13;;;6.23;;
34242;SDS011;20504;43.214;27.920;2023-08-17T03:04:44;16.50;;;12.20;;
34242;SDS011;20504;43.214;27.920;2023-08-17T03:07:09;13.13;;;6.13;;
34242;SDS011;20504;43.214;27.920;2023-08-17T03:09:35;12.07;;;7.40;;
34242;SDS011;20504;43.214;27.920;2023-08-17T03:12:00;10.27;;;6.33;;
34242;SDS011;20504;43.214;27.920;2023-08-17T03:14:26;10.53;;;6.93;;
34242;SDS011;20504;43.214;27.920;2023-08-17T03:16:51;11.27;;;7.93;;
34242;SDS011;20504;43.214;27.920;2023-08-17T03:19:16;12.03;;;8.27;;
34242;SDS011;20504;43.214;27.920;2023-08-17T03:21:42;28.27;;;24.00;;
34242;SDS011;20504;43.214;27.920;2023-08-17T03:24:08;15.10;;;8.68;;
34242;SDS011;20504;43.214;27.920;2023-08-17T03:26:33;17.43;;;7.53;;
34242;SDS011;20504;43.214;27.920;2023-08-17T03:28:59;20.17;;;13.73;;
34242;SDS011;20504;43.214;27.920;2023-08-17T03:31:24;13.77;;;9.70;;
34242;SDS011;20504;43.214;27.920;2023-08-17T03:33:50;9.50;;;7.47;;
34242;SDS011;20504;43.214;27.920;2023-08-17T03:36:15;10.23;;;9.07;;
34242;SDS011;20504;43.214;27.920;2023-08-17T03:38:41;27.20;;;18.80;;
34242;SDS011;20504;43.214;27.920;2023-08-17T03:41:06;39.63;;;35.30;;
34242;SDS011;20504;43.214;27.920;2023-08-17T03:43:32;13.30;;;7.43;;
34242;SDS011;20504;43.214;27.920;2023-08-17T03:45:58;17.20;;;10.10;;
34242;SDS011;20504;43.214;27.920;2023-08-17T03:48:23;12.20;;;7.00;;
34242;SDS011;20504;43.214;27.920;2023-08-17T03:50:52;17.50;;;11.30;;
34242;SDS011;20504;43.214;27.920;2023-08-17T03:53:19;11.77;;;10.50;;
34242;SDS011;20504;43.214;27.920;2023-08-17T03:55:48;14.53;;;8.33;;
34242;SDS011;20504;43.214;27.920;2023-08-17T03:58:14;13.00;;;11.73;;
34242;SDS011;20504;43.214;27.920;2023-08-17T04:00:40;281.55;;;261.55;;
34242;SDS011;20504;43.214;27.920;2023-08-17T04:03:05;61.10;;;57.47;;
34242;SDS011;20504;43.214;27.920;2023-08-17T04:05:31;145.02;;;135.85;;
34242;SDS011;20504;43.214;27.920;2023-08-17T04:07:58;50.55;;;46.55;;
34242;SDS011;20504;43.214;27.920;2023-08-17T04:10:27;75.88;;;68.65;;
34242;SDS011;20504;43.214;27.920;2023-08-17T04:12:53;29.02;;;26.23;;
34242;SDS011;20504;43.214;27.920;2023-08-17T04:15:18;35.23;;;32.77;;
34242;SDS011;20504;43.214;27.920;2023-08-17T04:17:44;19.83;;;17.90;;
34242;SDS011;20504;43.214;27.920;2023-08-17T04:20:09;16.50;;;9.07;;
34242;SDS011;20504;43.214;27.920;2023-08-17T04:22:35;17.48;;;9.80;;
34242;SDS011;20504;43.214;27.920;2023-08-17T04:25:00;14.23;;;6.23;;
34242;SDS011;20504;43.214;27.920;2023-08-17T04:27:26;16.03;;;8.53;;
34242;SDS011;20504;43.214;27.920;2023-08-17T04:29:51;16.93;;;12.13;;
34242;SDS011;20504;43.214;27.920;2023-08-17T04:32:17;12.50;;;6.77;;
34242;SDS011;20504;43.214;27.920;2023-08-17T04:34:43;10.40;;;7.40;;
34242;SDS011;20504;43.214;27.920;2023-08-17T04:37:10;24.42;;;19.92;;
34242;SDS011;20504;43.214;27.920;2023-08-17T04:39:35;11.50;;;7.83;;
34242;SDS011;20504;43.214;27.920;2023-08-17T04:42:02;7.70;;;6.70;;
34242;SDS011;20504;43.214;27.920;2023-08-17T04:44:28;17.80;;;11.82;;
34242;SDS011;20504;43.214;27.920;2023-08-17T04:46:54;9.90;;;6.73;;
34242;SDS011;20504;43.214;27.920;2023-08-17T04:49:19;9.73;;;7.60;;
34242;SDS011;20504;43.214;27.920;2023-08-17T04:51:44;12.83;;;6.43;;
34242;SDS011;20504;43.214;27.920;2023-08-17T04:54:10;13.10;;;9.87;;
34242;SDS011;20504;43.214;27.920;2023-08-17T04:56:36;16.00;;;14.05;;
34242;SDS011;20504;43.214;27.920;2023-08-17T04:59:02;14.20;;;6.40;;
34242;SDS011;20504;43.214;27.920;2023-08-17T05:01:27;18.43;;;15.07;;
34242;SDS011;20504;43.214;27.920;2023-08-17T05:03:52;14.93;;;8.07;;
34242;SDS011;20504;43.214;27.920;2023-08-17T05:06:18;15.57;;;7.33;;
34242;SDS011;20504;43.214;27.920;2023-08-17T05:08:43;11.17;;;6.67;;
34242;SDS011;20504;43.214;27.920;2023-08-17T05:11:09;12.47;;;6.93;;
34242;SDS011;20504;43.214;27.920;2023-08-17T05:13:35;11.82;;;7.78;;
34242;SDS011;20504;43.214;27.920;2023-08-17T05:16:00;9.73;;;6.73;;
34242;SDS011;20504;43.214;27.920;2023-08-17T05:18:26;11.90;;;7.00;;
34242;SDS011;20504;43.214;27.920;2023-08-17T05:20:51;14.73;;;7.53;;
34242;SDS011;20504;43.214;27.920;2023-08-17T05:23:17;14.90;;;7.73;;
34242;SDS011;20504;43.214;27.920;2023-08-17T05:25:45;9.77;;;7.50;;
34242;SDS011;20504;43.214;27.920;2023-08-17T05:28:12;14.65;;;8.10;;
34242;SDS011;20504;43.214;27.920;2023-08-17T05:30:38;10.73;;;8.40;;
34242;SDS011;20504;43.214;27.920;2023-08-17T05:33:04;12.05;;;8.20;;
34242;SDS011;20504;43.214;27.920;2023-08-17T05:35:31;12.40;;;7.53;;
34242;SDS011;20504;43.214;27.920;2023-08-17T05:38:03;13.35;;;8.43;;
34242;SDS011;20504;43.214;27.920;2023-08-17T05:40:29;18.92;;;8.13;;
34242;SDS011;20504;43.214;27.920;2023-08-17T05:42:56;16.60;;;8.15;;
34242;SDS011;20504;43.214;27.920;2023-08-17T05:45:21;12.68;;;8.25;;
34242;SDS011;20504;43.214;27.920;2023-08-17T05:47:47;13.10;;;7.80;;
34242;SDS011;20504;43.214;27.920;2023-08-17T05:50:12;15.83;;;8.17;;
34242;SDS011;20504;43.214;27.920;2023-08-17T05:52:38;10.93;;;8.40;;
34242;SDS011;20504;43.214;27.920;2023-08-17T05:55:03;14.93;;;8.20;;
34242;SDS011;20504;43.214;27.920;2023-08-17T05:57:29;13.20;;;8.60;;
34242;SDS011;20504;43.214;27.920;2023-08-17T05:59:55;14.13;;;8.77;;
34242;SDS011;20504;43.214;27.920;2023-08-17T06:02:20;18.10;;;9.63;;
34242;SDS011;20504;43.214;27.920;2023-08-17T06:04:47;18.73;;;9.37;;
34242;SDS011;20504;43.214;27.920;2023-08-17T06:07:13;14.15;;;9.55;;
34242;SDS011;20504;43.214;27.920;2023-08-17T06:09:39;21.27;;;11.07;;
34242;SDS011;20504;43.214;27.920;2023-08-17T06:12:04;14.67;;;9.97;;
34242;SDS011;20504;43.214;27.920;2023-08-17T06:14:30;17.02;;;10.07;;
34242;SDS011;20504;43.214;27.920;2023-08-17T06:16:57;15.23;;;9.80;;
34242;SDS011;20504;43.214;27.920;2023-08-17T06:19:23;17.15;;;9.23;;
34242;SDS011;20504;43.214;27.920;2023-08-17T06:21:49;14.87;;;9.10;;
34242;SDS011;20504;43.214;27.920;2023-08-17T06:24:14;11.43;;;8.27;;
34242;SDS011;20504;43.214;27.920;2023-08-17T06:26:39;19.93;;;10.27;;
34242;SDS011;20504;43.214;27.920;2023-08-17T06:29:05;15.10;;;8.83;;
34242;SDS011;20504;43.214;27.920;2023-08-17T06:31:30;12.90;;;8.97;;
34242;SDS011;20504;43.214;27.920;2023-08-17T06:33:56;11.30;;;9.57;;
34242;SDS011;20504;43.214;27.920;2023-08-17T06:36:22;19.77;;;9.60;;
34242;SDS011;20504;43.214;27.920;2023-08-17T06:38:47;11.37;;;9.40;;
34242;SDS011;20504;43.214;27.920;2023-08-17T06:41:13;15.93;;;11.30;;
34242;SDS011;20504;43.214;27.920;2023-08-17T06:43:38;13.85;;;9.88;;
34242;SDS011;20504;43.214;27.920;2023-08-17T06:46:04;15.00;;;9.67;;
34242;SDS011;20504;43.214;27.920;2023-08-17T06:48:29;16.02;;;9.80;;
34242;SDS011;20504;43.214;27.920;2023-08-17T06:50:56;10.85;;;9.88;;
34242;SDS011;20504;43.214;27.920;2023-08-17T06:53:22;21.75;;;11.35;;
34242;SDS011;20504;43.214;27.920;2023-08-17T06:55:47;14.43;;;9.80;;
34242;SDS011;20504;43.214;27.920;2023-08-17T06:58:13;17.77;;;11.18;;
34242;SDS011;20504;43.214;27.920;2023-08-17T07:00:38;19.30;;;11.87;;
34242;SDS011;20504;43.214;27.920;2023-08-17T07:03:05;14.05;;;10.48;;
34242;SDS011;20504;43.214;27.920;2023-08-17T07:05:31;19.60;;;12.32;;
34242;SDS011;20504;43.214;27.920;2023-08-17T07:07:57;16.70;;;12.45;;
34242;SDS011;20504;43.214;27.920;2023-08-17T07:10:24;18.58;;;12.10;;
34242;SDS011;20504;43.214;27.920;2023-08-17T07:12:50;13.82;;;12.43;;
34242;SDS011;20504;43.214;27.920;2023-08-17T07:15:15;18.27;;;12.33;;
34242;SDS011;20504;43.214;27.920;2023-08-17T07:17:40;24.50;;;13.57;;
34242;SDS011;20504;43.214;27.920;2023-08-17T07:20:06;29.13;;;12.07;;
34242;SDS011;20504;43.214;27.920;2023-08-17T07:22:36;23.48;;;14.13;;
34242;SDS011;20504;43.214;27.920;2023-08-17T07:25:02;18.25;;;13.48;;
34242;SDS011;20504;43.214;27.920;2023-08-17T07:27:28;15.70;;;13.82;;
34242;SDS011;20504;43.214;27.920;2023-08-17T07:29:54;18.75;;;15.45;;
34242;SDS011;20504;43.214;27.920;2023-08-17T07:32:19;17.77;;;16.07;;
34242;SDS011;20504;43.214;27.920;2023-08-17T07:37:11;13.90;;;12.02;;
34242;SDS011;20504;43.214;27.920;2023-08-17T07:39:37;16.85;;;15.35;;
34242;SDS011;20504;43.214;27.920;2023-08-17T07:42:02;19.02;;;17.10;;
34242;SDS011;20504;43.214;27.920;2023-08-17T07:44:28;17.65;;;16.05;;
34242;SDS011;20504;43.214;27.920;2023-08-17T07:46:56;16.92;;;15.23;;
34242;SDS011;20504;43.214;27.920;2023-08-17T07:49:22;19.35;;;16.88;;
34242;SDS011;20504;43.214;27.920;2023-08-17T07:51:49;18.63;;;17.13;;
34242;SDS011;20504;43.214;27.920;2023-08-17T07:54:17;19.38;;;17.58;;
34242;SDS011;20504;43.214;27.920;2023-08-17T07:56:43;20.10;;;18.50;;
34242;SDS011;20504;43.214;27.920;2023-08-17T07:59:09;22.52;;;17.92;;
34242;SDS011;20504;43.214;27.920;2023-08-17T08:01:36;20.27;;;18.57;;
34242;SDS011;20504;43.214;27.920;2023-08-17T08:04:01;19.10;;;17.27;;
34242;SDS011;20504;43.214;27.920;2023-08-17T08:06:27;22.45;;;20.50;;
34242;SDS011;20504;43.214;27.920;2023-08-17T08:08:52;32.23;;;29.40;;
34242;SDS011;20504;43.214;27.920;2023-08-17T08:11:18;20.13;;;18.02;;
34242;SDS011;20504;43.214;27.920;2023-08-17T08:13:43;43.72;;;40.58;;
34242;SDS011;20504;43.214;27.920;2023-08-17T08:16:09;45.30;;;42.00;;
34242;SDS011;20504;43.214;27.920;2023-08-17T08:18:34;52.27;;;48.47;;
34242;SDS011;20504;43.214;27.920;2023-08-17T08:21:00;57.87;;;53.60;;
34242;SDS011;20504;43.214;27.920;2023-08-17T08:23:25;50.80;;;47.17;;
34242;SDS011;20504;43.214;27.920;2023-08-17T08:25:51;50.78;;;47.28;;
34242;SDS011;20504;43.214;27.920;2023-08-17T08:28:17;47.55;;;44.10;;
34242;SDS011;20504;43.214;27.920;2023-08-17T08:30:42;51.17;;;47.80;;
34242;SDS011;20504;43.214;27.920;2023-08-17T08:33:08;46.70;;;43.77;;
34242;SDS011;20504;43.214;27.920;2023-08-17T08:35:33;52.40;;;48.70;;
34242;SDS011;20504;43.214;27.920;2023-08-17T08:37:59;54.15;;;49.75;;
34242;SDS011;20504;43.214;27.920;2023-08-17T08:40:28;56.58;;;52.70;;
34242;SDS011;20504;43.214;27.920;2023-08-17T08:42:55;56.72;;;52.40;;
34242;SDS011;20504;43.214;27.920;2023-08-17T08:45:22;56.10;;;52.10;;
34242;SDS011;20504;43.214;27.920;2023-08-17T08:47:48;48.92;;;44.88;;
34242;SDS011;20504;43.214;27.920;2023-08-17T08:50:18;53.55;;;49.75;;
34242;SDS011;20504;43.214;27.920;2023-08-17T08:52:50;51.25;;;47.30;;
34242;SDS011;20504;43.214;27.920;2023-08-17T08:55:24;53.85;;;49.70;;
34242;SDS011;20504;43.214;27.920;2023-08-17T08:57:54;49.00;;;45.35;;
34242;SDS011;20504;43.214;27.920;2023-08-17T09:00:21;47.00;;;44.10;;
34242;SDS011;20504;43.214;27.920;2023-08-17T09:02:48;47.08;;;43.67;;
34242;SDS011;20504;43.214;27.920;2023-08-17T09:05:14;48.58;;;45.00;;
34242;SDS011;20504;43.214;27.920;2023-08-17T09:07:40;48.53;;;45.42;;
34242;SDS011;20504;43.214;27.920;2023-08-17T09:10:08;51.15;;;47.70;;
34242;SDS011;20504;43.214;27.920;2023-08-17T09:12:35;54.45;;;50.95;;
34242;SDS011;20504;43.214;27.920;2023-08-17T09:15:00;51.70;;;48.45;;
34242;SDS011;20504;43.214;27.920;2023-08-17T09:17:26;54.03;;;49.83;;
34242;SDS011;20504;43.214;27.920;2023-08-17T09:22:25;44.50;;;41.65;;
34242;SDS011;20504;43.214;27.920;2023-08-17T09:25:02;47.08;;;43.70;;
34242;SDS011;20504;43.214;27.920;2023-08-17T09:27:28;45.90;;;42.50;;
34242;SDS011;20504;43.214;27.920;2023-08-17T09:30:00;49.92;;;46.60;;
34242;SDS011;20504;43.214;27.920;2023-08-17T09:32:44;52.90;;;49.15;;
34242;SDS011;20504;43.214;27.920;2023-08-17T09:35:12;47.25;;;43.95;;
34242;SDS011;20504;43.214;27.920;2023-08-17T09:37:39;53.83;;;50.13;;
34242;SDS011;20504;43.214;27.920;2023-08-17T09:40:04;56.10;;;52.25;;
34242;SDS011;20504;43.214;27.920;2023-08-17T09:42:34;59.35;;;55.22;;
34242;SDS011;20504;43.214;27.920;2023-08-17T09:44:59;51.38;;;47.50;;
34242;SDS011;20504;43.214;27.920;2023-08-17T09:47:26;56.80;;;52.75;;
34242;SDS011;20504;43.214;27.920;2023-08-17T09:49:52;59.97;;;55.47;;
34242;SDS011;20504;43.214;27.920;2023-08-17T09:52:18;56.10;;;52.10;;
34242;SDS011;20504;43.214;27.920;2023-08-17T09:54:45;51.42;;;47.35;;
34242;SDS011;20504;43.214;27.920;2023-08-17T09:57:12;63.05;;;58.63;;
34242;SDS011;20504;43.214;27.920;2023-08-17T09:59:38;55.45;;;51.72;;
34242;SDS011;20504;43.214;27.920;2023-08-17T10:02:03;60.53;;;56.00;;
34242;SDS011;20504;43.214;27.920;2023-08-17T10:04:42;74.88;;;69.35;;
34242;SDS011;20504;43.214;27.920;2023-08-17T10:07:09;158.75;;;146.98;;
34242;SDS011;20504;43.214;27.920;2023-08-17T10:09:39;179.43;;;165.82;;
34242;SDS011;20504;43.214;27.920;2023-08-17T10:12:11;39.03;;;36.15;;
34242;SDS011;20504;43.214;27.920;2023-08-17T10:14:49;65.53;;;60.75;;
34242;SDS011;20504;43.214;27.920;2023-08-17T10:17:27;65.22;;;60.58;;
34242;SDS011;20504;43.214;27.920;2023-08-17T10:20:00;65.88;;;61.20;;
34242;SDS011;20504;43.214;27.920;2023-08-17T10:24:55;66.10;;;61.20;;
34242;SDS011;20504;43.214;27.920;2023-08-17T10:27:24;73.10;;;67.50;;
34242;SDS011;20504;43.214;27.920;2023-08-17T10:29:51;69.45;;;64.13;;
34242;SDS011;20504;43.214;27.920;2023-08-17T10:32:17;75.80;;;69.93;;
34242;SDS011;20504;43.214;27.920;2023-08-17T10:34:46;68.43;;;63.40;;
34242;SDS011;20504;43.214;27.920;2023-08-17T10:37:13;139.70;;;129.35;;
34242;SDS011;20504;43.214;27.920;2023-08-17T10:39:47;122.07;;;112.35;;
34242;SDS011;20504;43.214;27.920;2023-08-17T10:42:14;133.90;;;124.03;;
34242;SDS011;20504;43.214;27.920;2023-08-17T10:47:20;134.48;;;124.47;;
34242;SDS011;20504;43.214;27.920;2023-08-17T10:49:48;147.00;;;135.88;;
34242;SDS011;20504;43.214;27.920;2023-08-17T10:55:06;134.18;;;123.90;;
34242;SDS011;20504;43.214;27.920;2023-08-17T10:57:43;133.23;;;123.70;;
34242;SDS011;20504;43.214;27.920;2023-08-17T11:03:00;126.20;;;116.82;;
34242;SDS011;20504;43.214;27.920;2023-08-17T11:05:34;118.47;;;109.90;;
34242;SDS011;20504;43.214;27.920;2023-08-17T11:13:37;90.53;;;84.15;;
34242;SDS011;20504;43.214;27.920;2023-08-17T11:16:04;83.60;;;77.72;;
34242;SDS011;20504;43.214;27.920;2023-08-17T11:18:31;99.80;;;92.88;;
34242;SDS011;20504;43.214;27.920;2023-08-17T11:21:01;83.63;;;77.88;;
34242;SDS011;20504;43.214;27.920;2023-08-17T11:23:29;76.47;;;71.00;;
34242;SDS011;20504;43.214;27.920;2023-08-17T11:25:55;84.13;;;78.35;;
34242;SDS011;20504;43.214;27.920;2023-08-17T11:28:21;82.28;;;76.63;;
34242;SDS011;20504;43.214;27.920;2023-08-17T11:30:56;71.88;;;66.70;;
34242;SDS011;20504;43.214;27.920;2023-08-17T11:33:23;90.03;;;83.78;;
34242;SDS011;20504;43.214;27.920;2023-08-17T11:35:50;86.07;;;79.35;;
34242;SDS011;20504;43.214;27.920;2023-08-17T11:38:16;127.63;;;117.63;;
34242;SDS011;20504;43.214;27.920;2023-08-17T11:40:41;59.88;;;55.80;;
34242;SDS011;20504;43.214;27.920;2023-08-17T11:43:07;138.90;;;128.65;;
34242;SDS011;20504;43.214;27.920;2023-08-17T11:45:33;65.97;;;61.78;;
34242;SDS011;20504;43.214;27.920;2023-08-17T11:47:59;69.85;;;65.05;;
34242;SDS011;20504;43.214;27.920;2023-08-17T11:50:24;70.60;;;66.03;;
34242;SDS011;20504;43.214;27.920;2023-08-17T11:52:51;81.68;;;76.65;;
34242;SDS011;20504;43.214;27.920;2023-08-17T11:55:17;81.78;;;76.75;;
34242;SDS011;20504;43.214;27.920;2023-08-17T11:57:43;84.47;;;78.68;;
34242;SDS011;20504;43.214;27.920;2023-08-17T12:02:35;61.70;;;57.35;;
34242;SDS011;20504;43.214;27.920;2023-08-17T12:05:03;80.68;;;75.72;;
34242;SDS011;20504;43.214;27.920;2023-08-17T12:07:31;91.97;;;86.13;;
34242;SDS011;20504;43.214;27.920;2023-08-17T12:12:22;100.63;;;94.53;;
34242;SDS011;20504;43.214;27.920;2023-08-17T12:14:48;117.68;;;110.03;;
34242;SDS011;20504;43.214;27.920;2023-08-17T12:19:41;132.80;;;124.40;;
34242;SDS011;20504;43.214;27.920;2023-08-17T12:22:07;105.68;;;98.80;;
34242;SDS011;20504;43.214;27.920;2023-08-17T12:24:32;104.75;;;97.50;;
34242;SDS011;20504;43.214;27.920;2023-08-17T12:26:59;121.75;;;113.53;;
34242;SDS011;20504;43.214;27.920;2023-08-17T12:29:27;124.50;;;116.10;;
34242;SDS011;20504;43.214;27.920;2023-08-17T12:31:53;150.77;;;140.05;;
34242;SDS011;20504;43.214;27.920;2023-08-17T12:34:18;96.22;;;89.45;;
34242;SDS011;20504;43.214;27.920;2023-08-17T12:36:44;121.07;;;112.78;;
34242;SDS011;20504;43.214;27.920;2023-08-17T12:39:09;134.73;;;124.93;;
34242;SDS011;20504;43.214;27.920;2023-08-17T12:41:35;119.40;;;111.30;;
34242;SDS011;20504;43.214;27.920;2023-08-17T12:44:00;123.97;;;114.55;;
34242;SDS011;20504;43.214;27.920;2023-08-17T12:46:26;127.93;;;119.13;;
34242;SDS011;20504;43.214;27.920;2023-08-17T12:48:52;121.53;;;113.22;;
34242;SDS011;20504;43.214;27.920;2023-08-17T12:51:18;115.78;;;107.53;;
34242;SDS011;20504;43.214;27.920;2023-08-17T12:53:43;117.50;;;109.00;;
34242;SDS011;20504;43.214;27.920;2023-08-17T12:56:09;125.75;;;116.68;;
34242;SDS011;20504;43.214;27.920;2023-08-17T12:58:35;133.90;;;124.75;;
34242;SDS011;20504;43.214;27.920;2023-08-17T13:01:01;115.38;;;107.05;;
34242;SDS011;20504;43.214;27.920;2023-08-17T13:03:27;119.68;;;110.72;;
34242;SDS011;20504;43.214;27.920;2023-08-17T13:05:53;127.30;;;118.10;;
34242;SDS011;20504;43.214;27.920;2023-08-17T13:08:19;115.63;;;107.38;;
34242;SDS011;20504;43.214;27.920;2023-08-17T13:10:44;130.57;;;120.78;;
34242;SDS011;20504;43.214;27.920;2023-08-17T13:13:10;120.55;;;111.97;;
34242;SDS011;20504;43.214;27.920;2023-08-17T13:15:35;130.60;;;120.88;;
34242;SDS011;20504;43.214;27.920;2023-08-17T13:18:01;134.80;;;124.35;;
34242;SDS011;20504;43.214;27.920;2023-08-17T13:20:27;133.57;;;124.18;;
34242;SDS011;20504;43.214;27.920;2023-08-17T13:22:52;143.00;;;132.35;;
34242;SDS011;20504;43.214;27.920;2023-08-17T13:25:18;143.27;;;133.13;;
34242;SDS011;20504;43.214;27.920;2023-08-17T13:27:43;153.63;;;142.40;;
34242;SDS011;20504;43.214;27.920;2023-08-17T13:30:09;123.00;;;113.80;;
34242;SDS011;20504;43.214;27.920;2023-08-17T13:32:35;148.15;;;137.15;;
34242;SDS011;20504;43.214;27.920;2023-08-17T13:35:01;137.18;;;126.97;;
34242;SDS011;20504;43.214;27.920;2023-08-17T13:37:27;155.30;;;143.77;;
34242;SDS011;20504;43.214;27.920;2023-08-17T13:39:53;166.68;;;154.15;;
34242;SDS011;20504;43.214;27.920;2023-08-17T13:42:19;161.90;;;149.98;;
34242;SDS011;20504;43.214;27.920;2023-08-17T13:44:44;175.55;;;162.77;;
34242;SDS011;20504;43.214;27.920;2023-08-17T13:47:11;168.02;;;155.38;;
34242;SDS011;20504;43.214;27.920;2023-08-17T13:49:37;148.25;;;137.27;;
34242;SDS011;20504;43.214;27.920;2023-08-17T13:52:02;144.70;;;133.77;;
34242;SDS011;20504;43.214;27.920;2023-08-17T13:54:28;171.60;;;158.73;;
34242;SDS011;20504;43.214;27.920;2023-08-17T13:56:54;159.75;;;147.57;;
34242;SDS011;20504;43.214;27.920;2023-08-17T14:01:46;122.40;;;114.38;;
34242;SDS011;20504;43.214;27.920;2023-08-17T14:06:38;125.63;;;118.10;;
34242;SDS011;20504;43.214;27.920;2023-08-17T14:09:04;139.60;;;131.18;;
34242;SDS011;20504;43.214;27.920;2023-08-17T14:13:55;127.47;;;119.05;;
34242;SDS011;20504;43.214;27.920;2023-08-17T14:16:25;129.65;;;121.03;;
34242;SDS011;20504;43.214;27.920;2023-08-17T14:18:50;122.85;;;114.35;;
34242;SDS011;20504;43.214;27.920;2023-08-17T14:21:16;139.38;;;129.43;;
34242;SDS011;20504;43.214;27.920;2023-08-17T14:23:41;131.43;;;122.50;;
34242;SDS011;20504;43.214;27.920;2023-08-17T14:26:07;123.90;;;114.93;;
34242;SDS011;20504;43.214;27.920;2023-08-17T14:28:32;141.02;;;131.07;;
34242;SDS011;20504;43.214;27.920;2023-08-17T14:30:58;133.60;;;124.20;;
34242;SDS011;20504;43.214;27.920;2023-08-17T14:33:23;120.72;;;111.82;;
34242;SDS011;20504;43.214;27.920;2023-08-17T14:35:49;133.15;;;123.30;;
34242;SDS011;20504;43.214;27.920;2023-08-17T14:38:15;135.13;;;125.40;;
34242;SDS011;20504;43.214;27.920;2023-08-17T14:40:44;129.35;;;120.20;;
34242;SDS011;20504;43.214;27.920;2023-08-17T14:43:11;110.25;;;102.43;;
34242;SDS011;20504;43.214;27.920;2023-08-17T14:45:40;113.15;;;105.03;;
34242;SDS011;20504;43.214;27.920;2023-08-17T14:48:06;117.05;;;108.68;;